Time;durP1;ratioP1;P1;durP2;ratioP2;P2;SDS_P1;SDS_P2;PMS_P1;PMS_P2;Temp;Humidity;BMP_temperature;BMP_pressure;BME280_temperature;BME280_humidity;BME280_pressure;Samples;Min_cycle;Max_cycle;Signal;HPM_P1;HPM_P2
2022/01/23 00:04:37;;;;;;;8.68;4.60;;;;;;;5.64;100.00;102321.94;5185322;28;20088;-81
2022/01/23 00:07:10;;;;;;;9.00;4.95;;;;;;;5.74;100.00;102321.19;5197147;28;20020;-80
2022/01/23 00:09:42;;;;;;;7.53;4.53;;;;;;;5.80;100.00;102317.00;5225650;28;20032;-82
2022/01/23 00:12:20;;;;;;;8.00;4.50;;;;;;;5.80;100.00;102313.50;5225829;28;20494;-79
2022/01/23 00:17:39;;;;;;;8.82;4.63;;;;;;;5.75;100.00;102304.78;5196297;28;20120;-83
2022/01/23 00:20:14;;;;;;;7.93;4.68;;;;;;;5.68;100.00;102313.31;5205074;28;20108;-82
2022/01/23 00:22:51;;;;;;;8.02;4.63;;;;;;;5.64;100.00;102312.44;5219948;28;20056;-81
2022/01/23 00:31:00;;;;;;;8.20;4.80;;;;;;;5.62;100.00;102323.63;5204930;28;20033;-83
2022/01/23 00:33:31;;;;;;;8.10;4.63;;;;;;;5.64;100.00;102316.75;5205351;28;20100;-79
2022/01/23 00:36:03;;;;;;;8.15;4.60;;;;;;;5.56;100.00;102313.19;5204062;28;20025;-82
2022/01/23 00:38:33;;;;;;;11.43;5.43;;;;;;;5.55;100.00;102311.44;5204715;28;20036;-80
2022/01/23 00:41:03;;;;;;;9.38;6.10;;;;;;;5.55;100.00;102308.88;5204817;28;20037;-79
2022/01/23 00:43:36;;;;;;;10.80;5.80;;;;;;;5.58;100.00;102307.16;5204398;28;20557;-82
2022/01/23 00:46:21;;;;;;;11.40;5.25;;;;;;;5.51;100.00;102315.72;5205117;28;20028;-83
2022/01/23 00:51:29;;;;;;;14.02;5.55;;;;;;;5.53;100.00;102318.31;5212275;28;20039;-80
2022/01/23 00:54:03;;;;;;;12.18;6.35;;;;;;;5.53;100.00;102310.53;5203050;28;20033;-81
2022/01/23 00:56:33;;;;;;;10.35;5.97;;;;;;;5.56;100.00;102314.03;5202131;28;20029;-79
2022/01/23 00:59:04;;;;;;;11.13;6.10;;;;;;;5.59;100.00;102323.59;5203345;28;20557;-79
2022/01/23 01:01:35;;;;;;;10.40;6.28;;;;;;;5.54;100.00;102313.16;5213130;28;20032;-81
2022/01/23 01:04:05;;;;;;;9.43;5.70;;;;;;;5.50;100.00;102318.28;5223921;28;20040;-80
2022/01/23 01:06:35;;;;;;;11.23;5.47;;;;;;;5.51;100.00;102317.44;5223638;28;20415;-81
2022/01/23 01:09:06;;;;;;;10.48;5.80;;;;;;;5.54;100.00;102314.91;5205599;28;20064;-79
2022/01/23 01:17:27;;;;;;;8.80;5.32;;;;;;;5.52;100.00;102322.66;5192136;28;20488;-80
2022/01/23 01:32:03;;;;;;;11.02;5.80;;;;;;;5.49;100.00;102326.91;5221700;28;20122;-83
2022/01/23 01:39:07;;;;;;;12.00;6.20;;;;;;;5.40;100.00;102342.38;5222423;28;20024;-82
2022/01/23 01:41:39;;;;;;;11.30;6.70;;;;;;;5.37;100.00;102337.16;5222879;28;20028;-84
2022/01/23 01:44:11;;;;;;;10.60;6.68;;;;;;;5.40;100.00;102332.84;5222442;28;20161;-81
2022/01/23 01:46:41;;;;;;;11.68;6.35;;;;;;;5.38;100.00;102342.34;5222175;28;20032;-79
2022/01/23 01:49:12;;;;;;;13.18;7.13;;;;;;;5.40;100.00;102340.63;5222212;28;20043;-84
2022/01/23 01:51:43;;;;;;;13.45;6.75;;;;;;;5.36;100.00;102345.75;5222419;28;20099;-83
2022/01/23 01:54:15;;;;;;;14.10;7.38;;;;;;;5.37;100.00;102347.50;5218845;28;20048;-83
2022/01/23 01:56:50;;;;;;;12.38;7.50;;;;;;;5.29;100.00;102353.44;5205400;28;20025;-79
2022/01/23 02:10:01;;;;;;;12.25;7.28;;;;;;;5.42;100.00;102345.84;5215633;28;20088;-83
2022/01/23 02:50:59;;;;;;;13.25;8.35;;;;;;;5.26;100.00;102354.25;5221740;28;20036;-81
2022/01/23 02:54:04;;;;;;;11.80;7.72;;;;;;;5.33;100.00;102355.22;5202860;28;20677;-79
2022/01/23 02:56:38;;;;;;;16.42;7.88;;;;;;;5.34;100.00;102344.84;5198757;28;20089;-82
2022/01/23 03:02:09;;;;;;;15.48;8.05;;;;;;;5.32;100.00;102337.94;5226002;28;20151;-79
2022/01/23 03:04:49;;;;;;;14.23;8.10;;;;;;;5.35;100.00;102338.81;5207924;28;20513;-81
2022/01/23 03:10:01;;;;;;;14.35;8.50;;;;;;;5.35;100.00;102337.97;5226454;28;20469;-82
2022/01/23 03:24:05;;;;;;;16.92;9.20;;;;;;;5.36;100.00;102350.94;5226874;28;20090;-81
2022/01/23 03:24:07;;;;;;;14.50;8.98;;;;;;;5.27;100.00;102344.75;5210285;28;20060;-79
2022/01/23 03:26:58;;;;;;;16.27;8.57;;;;;;;5.34;100.00;102344.00;5211693;28;20021;-79
2022/01/23 03:29:50;;;;;;;13.85;8.15;;;;;;;5.32;100.00;102356.06;5209619;28;20118;-79
2022/01/23 03:32:23;;;;;;;15.05;8.45;;;;;;;5.39;100.00;102348.41;5209604;28;20038;-81
2022/01/23 03:34:54;;;;;;;;;;;;;;;5.30;100.00;102350.84;5208949;28;20035;-80
2022/01/23 03:37:24;;;;;;;16.90;7.38;;;;;;;5.38;100.00;102357.03;5209686;28;20271;-81
2022/01/23 03:39:54;;;;;;;12.13;8.20;;;;;;;5.33;100.00;102353.47;5229130;28;20382;-80
2022/01/23 03:42:26;;;;;;;14.02;7.07;;;;;;;5.37;100.00;102352.69;5217941;28;20074;-82
2022/01/23 03:45:24;;;;;;;15.40;7.45;;;;;;;5.34;100.00;102347.44;5224831;28;20032;-81
2022/01/23 03:49:30;;;;;;;11.45;7.13;;;;;;;5.21;100.00;102352.44;5227183;28;20029;-81
2022/01/23 03:50:46;;;;;;;11.18;6.88;;;;;;;5.38;100.00;102354.44;5225332;28;20032;-79
2022/01/23 03:53:16;;;;;;;11.32;6.93;;;;;;;5.28;100.00;102347.38;5208986;28;20025;-81
2022/01/23 03:55:50;;;;;;;13.20;8.13;;;;;;;5.32;100.00;102349.16;5227899;28;20439;-79
2022/01/23 03:58:20;;;;;;;13.95;7.03;;;;;;;5.25;100.00;102347.34;5221935;28;20021;-80
2022/01/23 04:00:50;;;;;;;11.90;7.30;;;;;;;5.33;100.00;102350.88;5220782;28;20052;-80
2022/01/23 04:03:22;;;;;;;13.70;6.95;;;;;;;5.23;100.00;102353.34;5226776;28;20025;-80
2022/01/23 04:05:52;;;;;;;13.07;7.07;;;;;;;5.40;100.00;102350.16;5227220;28;20488;-80
2022/01/23 04:08:23;;;;;;;11.07;7.22;;;;;;;5.45;100.00;102356.25;5209112;28;20177;-80
2022/01/23 04:10:53;;;;;;;12.23;6.53;;;;;;;5.41;100.00;102359.66;5213160;28;20802;-81
2022/01/23 04:14:11;;;;;;;14.13;6.85;;;;;;;5.39;100.00;102366.56;5220236;28;20036;-79
2022/01/23 04:16:37;;;;;;;11.75;6.78;;;;;;;5.40;100.00;102357.91;5215227;28;20041;-82
2022/01/23 04:59:34;;;;;;;18.92;11.40;;;;;;;5.27;100.00;102345.63;5217326;28;20096;-81
2022/01/23 05:01:53;;;;;;;18.55;10.60;;;;;;;5.26;100.00;102361.16;5216186;28;20506;-79
2022/01/23 05:04:30;;;;;;;21.55;11.13;;;;;;;5.39;100.00;102363.97;5223794;28;20111;-81
2022/01/23 05:07:09;;;;;;;20.85;11.05;;;;;;;5.49;100.00;102360.63;5218979;28;20120;-80
2022/01/23 05:09:39;;;;;;;19.55;11.07;;;;;;;5.36;100.00;102371.66;5223565;28;20479;-80
2022/01/23 05:12:12;;;;;;;20.80;13.05;;;;;;;5.47;100.00;102370.09;5215649;28;20120;-80
2022/01/23 05:14:45;;;;;;;21.50;11.32;;;;;;;5.31;100.00;102383.69;5220845;28;20435;-79
2022/01/23 05:17:16;;;;;;;20.98;10.45;;;;;;;5.38;100.00;102377.78;5205812;28;20535;-80
2022/01/23 05:19:46;;;;;;;18.63;10.35;;;;;;;5.26;100.00;102393.13;5221219;28;20021;-80
2022/01/23 05:22:40;;;;;;;19.10;10.80;;;;;;;5.32;100.00;102390.63;5189366;28;20036;-80
2022/01/23 05:27:41;;;;;;;19.67;10.98;;;;;;;5.40;100.00;102379.50;5213166;28;20022;-79
2022/01/23 05:30:12;;;;;;;19.95;11.18;;;;;;;5.35;100.00;102395.84;5215241;28;20531;-81
2022/01/23 05:32:43;;;;;;;17.77;10.65;;;;;;;5.37;100.00;102389.00;5224143;28;20318;-81
2022/01/23 05:35:18;;;;;;;20.10;11.25;;;;;;;5.26;100.00;102392.25;5223793;28;20067;-79
2022/01/23 05:37:49;;;;;;;20.92;11.52;;;;;;;5.32;100.00;102382.00;5224605;28;20028;-81
2022/01/23 05:40:22;;;;;;;19.33;12.43;;;;;;;5.37;100.00;102385.50;5226246;28;20094;-82
2022/01/23 05:42:52;;;;;;;20.77;12.82;;;;;;;5.26;100.00;102385.38;5224970;28;20021;-80
2022/01/23 05:45:22;;;;;;;22.33;12.73;;;;;;;5.46;100.00;102381.34;5225289;28;20104;-82
2022/01/23 05:47:53;;;;;;;20.92;11.68;;;;;;;5.46;100.00;102383.91;5217658;28;20037;-82
2022/01/23 05:50:23;;;;;;;21.08;11.85;;;;;;;5.45;100.00;102392.56;5216913;28;20391;-80
2022/01/23 05:52:53;;;;;;;19.77;11.55;;;;;;;5.37;100.00;102390.69;5225193;28;20444;-80
2022/01/23 05:55:24;;;;;;;21.55;12.57;;;;;;;5.25;100.00;102399.16;5224242;28;20471;-79
2022/01/23 05:57:54;;;;;;;22.65;12.43;;;;;;;5.47;100.00;102396.91;5198643;28;20064;-80
2022/01/23 06:00:24;;;;;;;20.88;12.65;;;;;;;5.45;100.00;102393.44;5224127;28;20052;-79
2022/01/23 06:02:54;;;;;;;21.95;13.90;;;;;;;5.51;100.00;102387.44;5223913;28;20103;-82
2022/01/23 06:05:25;;;;;;;24.50;13.10;;;;;;;5.44;100.00;102411.56;5224781;28;20547;-83
2022/01/23 06:07:55;;;;;;;20.23;12.10;;;;;;;5.40;100.00;102409.78;5224926;28;20029;-81
2022/01/23 06:10:27;;;;;;;21.65;12.85;;;;;;;5.44;100.00;102411.56;5224201;28;20028;-80
2022/01/23 06:12:58;;;;;;;22.90;13.32;;;;;;;5.43;100.00;102409.81;5224496;28;20044;-79
2022/01/23 06:15:28;;;;;;;21.88;12.65;;;;;;;5.43;100.00;102417.59;5224276;28;20503;-80
2022/01/23 06:17:58;;;;;;;20.92;12.75;;;;;;;5.45;100.00;102415.88;5218518;28;20033;-81
2022/01/23 06:20:29;;;;;;;20.15;12.57;;;;;;;5.44;100.00;102416.75;5217123;28;20116;-82
2022/01/23 06:22:59;;;;;;;21.23;12.40;;;;;;;5.33;100.00;102420.03;5225029;28;20024;-81
2022/01/23 06:25:34;;;;;;;18.52;11.80;;;;;;;5.51;100.00;102421.16;5206530;28;20239;-81
2022/01/23 06:28:05;;;;;;;22.30;12.67;;;;;;;5.40;100.00;102417.56;5216949;28;20530;-80
2022/01/23 06:30:38;;;;;;;20.20;12.15;;;;;;;5.40;100.00;102421.00;5216895;28;20035;-82
2022/01/23 06:33:08;;;;;;;25.98;12.68;;;;;;;5.45;100.00;102421.06;5228440;28;20021;-83
2022/01/23 06:35:38;;;;;;;21.38;12.88;;;;;;;5.56;100.00;102416.91;5231374;28;20033;-82
2022/01/23 06:38:08;;;;;;;19.90;12.25;;;;;;;5.59;100.00;102427.34;5230224;28;20364;-81
2022/01/23 06:40:39;;;;;;;20.20;12.43;;;;;;;5.50;100.00;102420.28;5212249;28;20123;-80
2022/01/23 06:43:09;;;;;;;21.85;13.60;;;;;;;5.48;100.00;102418.50;5229925;28;20086;-80
2022/01/23 06:45:39;;;;;;;24.90;13.52;;;;;;;5.42;100.00;102405.47;5229921;28;20187;-79
2022/01/23 06:48:09;;;;;;;23.10;13.75;;;;;;;5.37;100.00;102414.91;5221197;28;20088;-79
2022/01/23 06:50:40;;;;;;;21.85;12.65;;;;;;;5.48;100.00;102423.69;5225906;28;20052;-80
2022/01/23 06:53:10;;;;;;;19.63;12.32;;;;;;;5.39;100.00;102416.66;5222437;28;20056;-81
2022/01/23 06:55:40;;;;;;;19.10;11.85;;;;;;;5.43;100.00;102421.03;5225116;28;20036;-82
2022/01/23 06:58:11;;;;;;;20.60;12.70;;;;;;;5.40;100.00;102414.97;5202576;28;20028;-82
2022/01/23 07:00:41;;;;;;;24.90;13.45;;;;;;;5.50;100.00;102419.41;5221721;28;20247;-82
2022/01/23 07:03:12;;;;;;;19.30;11.90;;;;;;;5.39;100.00;102426.19;5228926;28;20051;-80
2022/01/23 07:05:42;;;;;;;18.67;11.80;;;;;;;5.48;100.00;102419.41;5228976;28;20111;-81
2022/01/23 07:08:13;;;;;;;22.88;12.88;;;;;;;5.60;100.00;102423.88;5228757;28;20108;-81
2022/01/23 07:10:43;;;;;;;24.33;12.30;;;;;;;5.46;100.00;102425.41;5229229;28;20067;-83
2022/01/23 07:13:13;;;;;;;20.23;11.50;;;;;;;5.40;100.00;102425.31;5220401;28;20304;-81
2022/01/23 07:15:43;;;;;;;20.88;12.52;;;;;;;5.27;100.00;102431.16;5220578;28;20406;-80
2022/01/23 07:18:21;;;;;;;21.02;11.82;;;;;;;5.45;100.00;102439.22;5228011;28;20040;-81
2022/01/23 07:20:51;;;;;;;18.60;10.90;;;;;;;5.47;100.00;102443.59;5217500;28;20021;-82
2022/01/23 07:23:22;;;;;;;17.95;10.88;;;;;;;5.46;100.00;102448.75;5223806;28;20025;-80
2022/01/23 07:25:53;;;;;;;19.75;11.38;;;;;;;5.38;100.00;102450.38;5227901;28;20095;-80
2022/01/23 07:28:34;;;;;;;20.48;11.98;;;;;;;5.36;100.00;102449.44;5221755;28;20300;-80
2022/01/23 07:31:06;;;;;;;17.98;11.23;;;;;;;5.45;100.00;102465.16;5221267;28;20078;-81
2022/01/23 07:33:37;;;;;;;14.82;9.55;;;;;;;5.45;100.00;102462.56;5221359;28;20037;-82
2022/01/23 07:36:07;;;;;;;16.13;10.05;;;;;;;5.34;100.00;102464.09;5222793;28;20470;-81
2022/01/23 07:38:37;;;;;;;20.58;11.30;;;;;;;5.50;100.00;102466.97;5222019;28;20020;-81
2022/01/23 07:41:07;;;;;;;19.55;11.43;;;;;;;5.66;100.00;102465.47;5223053;28;20028;-80
2022/01/23 07:43:38;;;;;;;15.90;10.52;;;;;;;5.49;100.00;102461.75;5226758;28;20115;-80
2022/01/23 07:46:08;;;;;;;19.13;12.27;;;;;;;5.59;100.00;102468.81;5221114;28;20091;-82
2022/01/23 07:48:38;;;;;;;18.88;11.13;;;;;;;5.49;100.00;102472.13;5212745;28;20037;-81
2022/01/23 07:51:08;;;;;;;14.98;8.88;;;;;;;5.54;100.00;102467.91;5213939;28;20033;-81
2022/01/23 07:53:39;;;;;;;13.95;8.63;;;;;;;5.42;100.00;102465.97;5207994;28;20033;-80
2022/01/23 07:56:09;;;;;;;17.20;9.82;;;;;;;5.55;100.00;102472.22;5210336;28;20021;-80
2022/01/23 07:58:39;;;;;;;15.02;8.82;;;;;;;5.47;100.00;102472.13;5208404;28;20201;-80
2022/01/23 08:01:10;;;;;;;16.00;8.00;;;;;;;5.64;100.00;102474.94;5209834;28;20083;-80
2022/01/23 08:03:40;;;;;;;17.73;10.55;;;;;;;5.62;100.00;102485.31;5208775;28;20021;-80
2022/01/23 08:06:13;;;;;;;15.75;9.98;;;;;;;5.50;100.00;102481.63;5209158;28;20479;-80
2022/01/23 08:08:44;;;;;;;13.32;8.73;;;;;;;5.51;100.00;102488.56;5208262;28;20104;-81
2022/01/23 08:11:15;;;;;;;15.45;8.75;;;;;;;5.58;100.00;102487.84;5214383;28;20039;-81
2022/01/23 08:13:45;;;;;;;15.07;10.70;;;;;;;5.59;100.00;102489.56;5223364;28;20033;-80
2022/01/23 08:16:15;;;;;;;13.48;8.48;;;;;;;5.53;100.00;102484.28;5206029;28;20387;-80
2022/01/23 08:18:46;;;;;;;12.32;8.30;;;;;;;5.62;100.00;102494.81;5222185;28;20045;-81
2022/01/23 08:21:16;;;;;;;13.98;9.10;;;;;;;5.64;100.00;102503.47;5223892;28;20040;-81
2022/01/23 08:23:46;;;;;;;17.23;9.30;;;;;;;5.53;100.00;102507.63;5223219;28;20036;-79
2022/01/23 08:26:16;;;;;;;14.23;9.23;;;;;;;5.53;100.00;102510.19;5208904;28;20429;-80
2022/01/23 08:28:47;;;;;;;14.98;9.52;;;;;;;5.59;100.00;102505.13;5206457;28;20117;-81
2022/01/23 08:31:17;;;;;;;14.50;9.00;;;;;;;5.64;100.00;102504.38;5207520;28;20264;-79
2022/01/23 08:33:48;;;;;;;14.07;8.95;;;;;;;5.80;100.00;102513.25;5206267;28;20044;-80
2022/01/23 08:36:18;;;;;;;14.90;8.48;;;;;;;5.65;100.00;102505.22;5203754;28;20029;-80
2022/01/23 08:38:49;;;;;;;17.02;9.27;;;;;;;5.73;100.00;102511.41;5203944;28;20482;-81
2022/01/23 08:44:08;;;;;;;19.10;10.30;;;;;;;5.72;100.00;102513.13;5208397;28;20087;-79
2022/01/23 08:46:41;;;;;;;17.70;10.75;;;;;;;5.64;100.00;102519.03;5206715;28;20041;-79
2022/01/23 08:49:12;;;;;;;18.35;10.77;;;;;;;5.83;100.00;102519.38;5207662;28;20471;-81
2022/01/23 08:51:44;;;;;;;16.02;10.38;;;;;;;5.87;100.00;102525.47;5206324;28;20033;-80
2022/01/23 08:54:14;;;;;;;15.93;10.57;;;;;;;5.96;100.00;102529.09;5210049;28;20036;-80
2022/01/23 08:56:44;;;;;;;15.85;9.90;;;;;;;5.81;100.00;102527.97;5206106;28;20460;-81
2022/01/23 08:59:15;;;;;;;15.25;9.90;;;;;;;5.85;100.00;102525.47;5189612;28;20017;-80
2022/01/23 09:01:46;;;;;;;15.20;9.32;;;;;;;5.80;100.00;102526.25;5206995;28;20060;-80
2022/01/23 09:04:17;;;;;;;14.30;9.23;;;;;;;5.97;100.00;102527.34;5206367;28;20029;-81
2022/01/23 09:06:48;;;;;;;14.98;8.98;;;;;;;5.90;100.00;102521.19;5236814;22;20036;-79
2022/01/23 09:09:19;;;;;;;15.23;9.30;;;;;;;6.00;100.00;102525.69;5238688;28;20020;-78
2022/01/23 09:14:23;;;;;;;14.10;8.82;;;;;;;5.95;100.00;102523.88;5234296;28;20058;-78
2022/01/23 09:16:54;;;;;;;13.70;8.68;;;;;;;5.90;100.00;102518.59;5217432;28;20033;-78
2022/01/23 09:19:26;;;;;;;14.88;10.00;;;;;;;5.88;100.00;102519.47;5212962;28;20048;-78
2022/01/23 09:21:57;;;;;;;13.60;9.32;;;;;;;6.01;100.00;102513.56;5220630;28;20021;-78
2022/01/23 09:24:30;;;;;;;16.05;9.73;;;;;;;5.92;100.00;102511.72;5221096;28;20344;-78
2022/01/23 09:27:03;;;;;;;15.82;10.00;;;;;;;5.88;100.00;102520.31;5217331;28;20029;-79
2022/01/23 09:29:41;;;;;;;13.77;9.02;;;;;;;6.06;100.00;102519.72;5209501;28;20033;-79
2022/01/23 09:32:14;;;;;;;18.58;11.18;;;;;;;5.93;100.00;102518.63;5217140;28;20025;-79
2022/01/23 09:34:44;;;;;;;16.90;9.18;;;;;;;6.03;100.00;102522.25;5219149;28;20041;-78
2022/01/23 09:37:17;;;;;;;14.15;9.52;;;;;;;6.04;100.00;102516.19;5221180;28;20021;-78
2022/01/23 09:39:49;;;;;;;15.07;10.10;;;;;;;6.08;100.00;102512.81;5218997;28;20028;-79
2022/01/23 09:42:26;;;;;;;14.25;9.52;;;;;;;6.12;100.00;102523.22;5216861;28;20353;-78
2022/01/23 09:45:00;;;;;;;16.92;9.88;;;;;;;6.16;100.00;102517.25;5213369;28;20075;-78
2022/01/23 09:47:35;;;;;;;19.48;11.55;;;;;;;6.29;100.00;102515.69;5220295;28;20055;-78
2022/01/23 09:50:10;;;;;;;21.73;13.48;;;;;;;6.23;100.00;102503.50;5218382;28;20021;-78
2022/01/23 09:52:41;;;;;;;26.98;14.23;;;;;;;6.24;100.00;102509.56;5218828;28;20047;-80
2022/01/23 09:55:12;;;;;;;24.27;13.13;;;;;;;6.20;100.00;102518.16;5220348;28;20018;-79
2022/01/23 09:57:45;;;;;;;18.90;11.18;;;;;;;6.34;100.00;102511.41;5217151;28;20518;-79
2022/01/23 10:00:20;;;;;;;18.02;10.15;;;;;;;6.37;100.00;102511.44;5211754;28;20072;-78
2022/01/23 10:02:51;;;;;;;20.33;11.45;;;;;;;6.52;100.00;102511.63;5217418;28;20068;-79
2022/01/23 10:05:21;;;;;;;18.58;11.75;;;;;;;6.61;100.00;102517.81;5217642;28;20061;-78
2022/01/23 10:07:52;;;;;;;18.00;9.70;;;;;;;6.48;100.00;102530.63;5217074;28;20325;-78
2022/01/23 10:10:27;;;;;;;17.17;11.30;;;;;;;6.53;100.00;102529.84;5215391;28;20534;-79
2022/01/23 10:13:00;;;;;;;17.75;11.23;;;;;;;6.49;100.00;102512.50;5204744;28;20021;-79
2022/01/23 10:15:32;;;;;;;16.23;11.35;;;;;;;6.46;100.00;102524.56;5221563;28;20109;-79
2022/01/23 10:18:02;;;;;;;22.88;13.30;;;;;;;6.48;100.00;102525.44;5220587;28;20025;-78
2022/01/23 10:20:33;;;;;;;16.02;10.88;;;;;;;6.67;100.00;102528.28;5216596;28;20155;-79
2022/01/23 10:23:03;;;;;;;15.38;10.50;;;;;;;6.64;100.00;102535.16;5225011;28;20136;-79
2022/01/23 10:25:34;;;;;;;16.80;10.98;;;;;;;6.69;100.00;102541.28;5221051;28;20039;-79
2022/01/23 10:28:07;;;;;;;15.68;9.48;;;;;;;6.63;100.00;102530.81;5222118;28;20056;-79
2022/01/23 10:30:40;;;;;;;13.43;9.27;;;;;;;6.69;100.00;102533.47;5217451;28;20116;-79
2022/01/23 10:33:16;;;;;;;13.75;9.45;;;;;;;6.74;100.00;102537.03;5221583;28;20032;-78
2022/01/23 10:36:01;;;;;;;14.68;9.25;;;;;;;6.76;100.00;102537.91;5217664;28;20025;-79
2022/01/23 10:38:36;;;;;;;24.70;13.18;;;;;;;6.77;100.00;102539.66;5221784;28;20028;-78
2022/01/23 10:49:50;;;;;;;11.85;7.75;;;;;;;6.66;100.00;102538.66;5223910;28;20055;-78
2022/01/23 10:52:38;;;;;;;11.77;7.88;;;;;;;6.77;100.00;102539.66;5214026;28;20100;-78
2022/01/23 10:55:28;;;;;;;13.07;8.13;;;;;;;6.71;100.00;102537.84;5209372;28;20021;-78
2022/01/23 10:58:02;;;;;;;12.98;8.20;;;;;;;6.65;100.00;102534.31;5210258;28;20544;-79
2022/01/23 11:00:35;;;;;;;14.50;8.43;;;;;;;6.76;100.00;102546.56;5217471;28;20064;-79
2022/01/23 11:03:19;;;;;;;15.90;10.93;;;;;;;6.71;100.00;102536.97;5210436;28;20410;-78
2022/01/23 11:05:52;;;;;;;28.67;15.48;;;;;;;6.64;100.00;102542.97;5214699;28;20112;-78
2022/01/23 11:08:24;;;;;;;17.50;11.20;;;;;;;6.69;100.00;102543.88;5223352;28;20499;-79
2022/01/23 11:11:06;;;;;;;13.63;8.40;;;;;;;6.64;100.00;102546.44;5222108;28;20029;-78
2022/01/23 11:19:41;;;;;;;9.57;6.25;;;;;;;6.57;100.00;102547.19;5215329;28;20105;-79
2022/01/23 11:22:20;;;;;;;12.05;6.85;;;;;;;6.58;100.00;102548.09;5212235;28;20033;-78
2022/01/23 11:24:52;;;;;;;9.20;6.43;;;;;;;6.59;100.00;102549.84;5213359;28;20024;-79
2022/01/23 11:27:23;;;;;;;10.05;6.38;;;;;;;6.59;100.00;102542.91;5217990;28;20021;-79
2022/01/23 11:30:21;;;;;;;10.55;6.05;;;;;;;6.63;100.00;102547.25;5213136;28;20048;-80
2022/01/23 11:32:51;;;;;;;9.45;6.20;;;;;;;6.61;100.00;102540.34;5202075;28;20033;-78
2022/01/23 11:35:26;;;;;;;10.73;7.10;;;;;;;6.54;100.00;102544.56;5208384;28;20039;-78
2022/01/23 11:37:57;;;;;;;10.80;6.65;;;;;;;6.64;100.00;102545.56;5205653;28;20032;-78
2022/01/23 11:54:44;;;;;;;13.23;8.63;;;;;;;6.62;100.00;102529.09;5213078;28;20041;-79
2022/01/23 11:57:32;;;;;;;23.83;11.67;;;;;;;6.61;100.00;102528.19;5216527;28;20043;-79
2022/01/23 12:00:10;;;;;;;20.58;10.93;;;;;;;6.52;100.00;102516.81;5209026;28;20071;-78
2022/01/23 12:02:42;;;;;;;15.07;8.60;;;;;;;6.47;100.00;102529.78;5214913;28;20116;-79
2022/01/23 12:05:14;;;;;;;15.18;8.25;;;;;;;6.58;100.00;102527.31;5213325;28;20320;-78
2022/01/23 12:08:30;;;;;;;14.77;8.63;;;;;;;6.62;100.00;102521.28;5217170;28;20271;-78
2022/01/23 12:11:37;;;;;;;17.70;9.13;;;;;;;6.64;100.00;102516.97;5211122;28;20129;-78
2022/01/23 12:16:59;;;;;;;13.88;8.48;;;;;;;6.82;100.00;102515.47;5214612;28;20164;-79
2022/01/23 12:19:32;;;;;;;15.38;8.70;;;;;;;6.77;100.00;102518.88;5209179;28;20116;-79
2022/01/23 12:22:21;;;;;;;15.05;8.68;;;;;;;6.71;100.00;102508.38;5210960;28;20160;-79
2022/01/23 12:24:55;;;;;;;13.00;8.82;;;;;;;6.80;100.00;102509.34;5211926;28;20079;-78
2022/01/23 12:27:28;;;;;;;14.40;8.32;;;;;;;6.91;100.00;102512.94;5213394;28;20475;-79
2022/01/23 12:30:15;;;;;;;13.82;8.60;;;;;;;6.95;100.00;102500.88;5213958;28;20029;-78
2022/01/23 12:32:45;;;;;;;13.05;8.25;;;;;;;6.90;100.00;102508.59;5215886;28;20029;-80
2022/01/23 12:35:16;;;;;;;13.85;8.40;;;;;;;7.00;100.00;102507.84;5220348;28;20025;-78
2022/01/23 12:37:56;;;;;;;12.50;8.00;;;;;;;6.96;100.00;102497.41;5218670;28;20036;-80
2022/01/23 12:40:33;;;;;;;15.00;9.05;;;;;;;6.85;100.00;102501.63;5212952;28;20095;-79
2022/01/23 12:43:07;;;;;;;18.45;10.23;;;;;;;7.06;100.00;102497.50;5213947;28;20034;-79
2022/01/23 12:46:00;;;;;;;16.80;8.77;;;;;;;6.97;100.00;102501.75;5215284;28;20101;-79
2022/01/23 12:48:34;;;;;;;12.10;8.55;;;;;;;6.99;100.00;102503.50;5212038;28;20033;-80
2022/01/23 12:51:05;;;;;;;13.82;8.77;;;;;;;6.92;100.00;102498.25;5214533;28;20037;-79
2022/01/23 12:53:47;;;;;;;12.90;8.68;;;;;;;6.91;100.00;102497.34;5210308;28;20368;-79
2022/01/23 12:56:20;;;;;;;15.88;9.60;;;;;;;7.11;100.00;102505.34;5212584;28;20022;-78
2022/01/23 12:58:59;;;;;;;12.70;7.40;;;;;;;7.20;100.00;102508.03;5208038;28;20048;-78
2022/01/23 13:01:30;;;;;;;12.25;7.65;;;;;;;7.15;100.00;102507.13;5212247;28;20215;-79
2022/01/23 13:04:03;;;;;;;13.70;8.40;;;;;;;7.10;100.00;102503.63;5213656;28;20037;-79
2022/01/23 13:07:02;;;;;;;16.17;8.65;;;;;;;7.13;100.00;102503.63;5217756;28;20025;-80
2022/01/23 13:09:56;;;;;;;15.88;9.55;;;;;;;7.30;100.00;102505.50;5214682;28;20533;-78
2022/01/23 13:17:58;;;;;;;12.70;7.90;;;;;;;7.27;100.00;102515.91;5218120;28;20032;-78
2022/01/23 13:34:51;;;;;;;10.68;7.28;;;;;;;7.52;100.00;102505.69;5215715;28;20498;-78
2022/01/23 13:37:24;;;;;;;15.27;8.10;;;;;;;7.58;100.00;102495.38;5214887;28;20032;-78
2022/01/23 13:40:08;;;;;;;10.88;7.40;;;;;;;7.46;100.00;102486.56;5214165;28;20823;-80
2022/01/23 14:02:34;;;;;;;11.70;6.47;;;;;;;7.28;100.00;102494.22;5209829;28;20051;-79
2022/01/23 14:05:13;;;;;;;20.65;11.68;;;;;;;7.44;100.00;102499.59;5207917;28;20144;-80
2022/01/23 14:07:51;;;;;;;19.67;11.32;;;;;;;7.31;100.00;102496.84;5203988;28;20044;-78
2022/01/23 14:10:27;;;;;;;30.70;15.75;;;;;;;7.39;100.00;102503.84;5203080;28;20068;-79
2022/01/23 14:13:19;;;;;;;67.13;27.73;;;;;;;7.33;100.00;102498.63;5210154;28;20035;-78
2022/01/23 14:15:52;;;;;;;36.83;17.52;;;;;;;7.32;100.00;102506.44;5204235;28;20036;-78
2022/01/23 14:18:26;;;;;;;35.40;16.67;;;;;;;7.38;100.00;102501.25;5202301;28;20028;-78
2022/01/23 14:21:06;;;;;;;16.00;9.90;;;;;;;7.43;100.00;102510.84;5202696;28;20069;-78
2022/01/23 14:23:36;;;;;;;12.63;7.90;;;;;;;7.40;100.00;102513.44;5211791;28;20067;-79
2022/01/23 14:26:10;;;;;;;11.95;7.30;;;;;;;7.41;100.00;102517.78;5209305;28;20037;-78
2022/01/23 14:28:42;;;;;;;12.40;7.43;;;;;;;7.40;100.00;102516.03;5204509;28;20838;-79
2022/01/23 14:31:18;;;;;;;13.45;7.70;;;;;;;7.22;100.00;102518.44;5205035;28;20040;-79
2022/01/23 14:33:52;;;;;;;12.23;8.20;;;;;;;7.28;100.00;102520.22;5210904;28;20025;-78
2022/01/23 14:36:30;;;;;;;13.17;8.67;;;;;;;7.19;100.00;102524.47;5210294;28;20037;-78
2022/01/23 14:39:03;;;;;;;11.32;7.80;;;;;;;7.22;100.00;102523.66;5203976;28;20032;-79
2022/01/23 14:41:37;;;;;;;12.60;7.82;;;;;;;7.24;100.00;102521.06;5208911;28;20067;-79
2022/01/23 14:44:15;;;;;;;11.95;7.78;;;;;;;7.15;100.00;102522.72;5211256;28;20054;-79
2022/01/23 14:46:47;;;;;;;12.07;7.55;;;;;;;7.24;100.00;102526.28;5215076;28;20052;-79
2022/01/23 14:49:28;;;;;;;12.50;7.68;;;;;;;7.27;100.00;102523.69;5214383;28;20036;-78
2022/01/23 14:52:01;;;;;;;11.93;7.85;;;;;;;7.22;100.00;102522.78;5208997;28;20055;-79
2022/01/23 14:54:33;;;;;;;12.43;7.60;;;;;;;7.29;100.00;102529.78;5206890;28;20037;-78
2022/01/23 14:57:06;;;;;;;13.45;8.50;;;;;;;7.24;100.00;102531.47;5215920;28;20048;-79
2022/01/23 14:59:37;;;;;;;16.23;6.82;;;;;;;7.26;100.00;102532.34;5213615;28;20026;-80
2022/01/23 15:02:08;;;;;;;11.32;6.93;;;;;;;7.32;100.00;102535.88;5219862;28;20039;-79
2022/01/23 15:04:46;;;;;;;11.65;6.45;;;;;;;7.34;100.00;102531.56;5217784;28;20029;-78
2022/01/23 15:07:18;;;;;;;10.82;6.80;;;;;;;7.23;100.00;102529.72;5211620;28;20033;-78
2022/01/23 15:09:50;;;;;;;13.90;7.63;;;;;;;7.24;100.00;102534.06;5217232;28;20028;-78
2022/01/23 15:12:20;;;;;;;11.82;7.45;;;;;;;7.27;100.00;102530.66;5212616;28;20128;-78
2022/01/23 15:14:50;;;;;;;12.57;7.63;;;;;;;7.22;100.00;102540.09;5218510;28;20099;-79
2022/01/23 15:17:21;;;;;;;13.43;7.97;;;;;;;7.22;100.00;102541.84;5212273;28;20064;-78
2022/01/23 15:19:54;;;;;;;12.68;7.88;;;;;;;7.16;100.00;102545.25;5212129;28;20045;-78
2022/01/23 15:22:25;;;;;;;13.30;7.85;;;;;;;7.23;100.00;102540.13;5209584;28;20136;-79
2022/01/23 15:24:55;;;;;;;16.10;9.43;;;;;;;7.18;100.00;102541.84;5210684;28;20074;-79